sensor_id;sensor_type;location;lat;lon;timestamp;temperature;humidity
25188;DHT22;13141;50.414;8.050;2024-02-26T00:00:51;8.20;99.90
25188;DHT22;13141;50.414;8.050;2024-02-26T00:03:17;8.30;99.90
25188;DHT22;13141;50.414;8.050;2024-02-26T00:05:42;8.10;99.90
25188;DHT22;13141;50.414;8.050;2024-02-26T00:08:08;8.00;99.90
25188;DHT22;13141;50.414;8.050;2024-02-26T00:10:34;8.00;99.90
25188;DHT22;13141;50.414;8.050;2024-02-26T00:13:02;8.00;99.90
25188;DHT22;13141;50.414;8.050;2024-02-26T00:15:27;8.00;99.90
25188;DHT22;13141;50.414;8.050;2024-02-26T00:17:53;8.10;99.90
25188;DHT22;13141;50.414;8.050;2024-02-26T00:20:19;8.00;99.90
25188;DHT22;13141;50.414;8.050;2024-02-26T00:22:44;8.00;99.90
25188;DHT22;13141;50.414;8.050;2024-02-26T00:25:10;8.10;99.90
25188;DHT22;13141;50.414;8.050;2024-02-26T00:27:36;8.00;99.90
25188;DHT22;13141;50.414;8.050;2024-02-26T00:30:04;8.00;99.90
25188;DHT22;13141;50.414;8.050;2024-02-26T00:32:30;8.00;99.90
25188;DHT22;13141;50.414;8.050;2024-02-26T00:34:56;8.00;99.90
25188;DHT22;13141;50.414;8.050;2024-02-26T00:37:22;8.00;99.90
25188;DHT22;13141;50.414;8.050;2024-02-26T00:39:47;7.90;99.90
25188;DHT22;13141;50.414;8.050;2024-02-26T00:42:13;8.10;99.90
25188;DHT22;13141;50.414;8.050;2024-02-26T00:44:39;7.90;99.90
25188;DHT22;13141;50.414;8.050;2024-02-26T00:47:06;7.80;99.90
25188;DHT22;13141;50.414;8.050;2024-02-26T00:49:31;7.80;99.90
25188;DHT22;13141;50.414;8.050;2024-02-26T00:51:57;7.80;99.90
25188;DHT22;13141;50.414;8.050;2024-02-26T00:54:23;7.70;99.90
25188;DHT22;13141;50.414;8.050;2024-02-26T00:56:49;7.70;99.90
25188;DHT22;13141;50.414;8.050;2024-02-26T00:59:14;7.70;99.90
25188;DHT22;13141;50.414;8.050;2024-02-26T01:01:40;7.60;99.90
25188;DHT22;13141;50.414;8.050;2024-02-26T01:04:07;7.60;99.90
25188;DHT22;13141;50.414;8.050;2024-02-26T01:06:33;7.60;99.90
25188;DHT22;13141;50.414;8.050;2024-02-26T01:08:59;7.70;99.90
25188;DHT22;13141;50.414;8.050;2024-02-26T01:11:24;7.70;99.90
25188;DHT22;13141;50.414;8.050;2024-02-26T01:13:50;7.70;99.90
25188;DHT22;13141;50.414;8.050;2024-02-26T01:16:16;7.90;99.90
25188;DHT22;13141;50.414;8.050;2024-02-26T01:18:41;7.70;99.90
25188;DHT22;13141;50.414;8.050;2024-02-26T01:21:08;7.70;99.90
25188;DHT22;13141;50.414;8.050;2024-02-26T01:23:34;7.70;99.90
25188;DHT22;13141;50.414;8.050;2024-02-26T01:26:00;7.80;99.90
25188;DHT22;13141;50.414;8.050;2024-02-26T01:28:26;7.80;99.90
25188;DHT22;13141;50.414;8.050;2024-02-26T01:30:51;7.80;99.90
25188;DHT22;13141;50.414;8.050;2024-02-26T01:33:18;7.90;99.90
25188;DHT22;13141;50.414;8.050;2024-02-26T01:35:44;7.90;99.90
25188;DHT22;13141;50.414;8.050;2024-02-26T01:38:11;7.80;99.90
25188;DHT22;13141;50.414;8.050;2024-02-26T01:40:37;7.90;99.90
25188;DHT22;13141;50.414;8.050;2024-02-26T01:43:03;7.80;99.90
25188;DHT22;13141;50.414;8.050;2024-02-26T01:45:28;7.70;99.90
25188;DHT22;13141;50.414;8.050;2024-02-26T01:47:55;7.80;99.90
25188;DHT22;13141;50.414;8.050;2024-02-26T01:50:22;7.70;99.90
25188;DHT22;13141;50.414;8.050;2024-02-26T01:52:49;7.80;99.90
25188;DHT22;13141;50.414;8.050;2024-02-26T01:55:17;7.80;99.90
25188;DHT22;13141;50.414;8.050;2024-02-26T01:57:45;7.80;99.90
25188;DHT22;13141;50.414;8.050;2024-02-26T02:00:12;8.00;99.90
25188;DHT22;13141;50.414;8.050;2024-02-26T02:02:39;7.80;99.90
25188;DHT22;13141;50.414;8.050;2024-02-26T02:05:07;7.80;99.90
25188;DHT22;13141;50.414;8.050;2024-02-26T02:07:34;7.80;99.90
25188;DHT22;13141;50.414;8.050;2024-02-26T02:10:00;7.60;99.90
25188;DHT22;13141;50.414;8.050;2024-02-26T02:12:27;7.50;99.90
25188;DHT22;13141;50.414;8.050;2024-02-26T02:14:53;7.50;99.90
25188;DHT22;13141;50.414;8.050;2024-02-26T02:17:19;7.60;99.90
25188;DHT22;13141;50.414;8.050;2024-02-26T02:19:45;7.70;99.90
25188;DHT22;13141;50.414;8.050;2024-02-26T02:22:12;7.70;99.90
25188;DHT22;13141;50.414;8.050;2024-02-26T02:24:37;7.80;99.90
25188;DHT22;13141;50.414;8.050;2024-02-26T02:27:04;7.70;99.90
25188;DHT22;13141;50.414;8.050;2024-02-26T02:29:29;7.80;99.90
25188;DHT22;13141;50.414;8.050;2024-02-26T02:31:55;7.70;99.90
25188;DHT22;13141;50.414;8.050;2024-02-26T02:34:22;7.70;99.90
25188;DHT22;13141;50.414;8.050;2024-02-26T02:36:52;7.80;99.90
25188;DHT22;13141;50.414;8.050;2024-02-26T02:39:19;7.60;99.90
25188;DHT22;13141;50.414;8.050;2024-02-26T02:41:45;7.60;99.90
25188;DHT22;13141;50.414;8.050;2024-02-26T02:44:11;7.50;99.90
25188;DHT22;13141;50.414;8.050;2024-02-26T02:46:37;7.50;99.90
25188;DHT22;13141;50.414;8.050;2024-02-26T02:49:03;7.50;99.90
25188;DHT22;13141;50.414;8.050;2024-02-26T02:51:28;7.50;99.90
25188;DHT22;13141;50.414;8.050;2024-02-26T02:53:54;7.50;99.90
25188;DHT22;13141;50.414;8.050;2024-02-26T02:56:21;7.50;99.90
25188;DHT22;13141;50.414;8.050;2024-02-26T02:58:47;7.50;99.90
25188;DHT22;13141;50.414;8.050;2024-02-26T03:01:13;7.40;99.90
25188;DHT22;13141;50.414;8.050;2024-02-26T03:03:39;7.40;99.90
25188;DHT22;13141;50.414;8.050;2024-02-26T03:06:05;7.50;99.90
25188;DHT22;13141;50.414;8.050;2024-02-26T03:08:31;7.50;99.90
25188;DHT22;13141;50.414;8.050;2024-02-26T03:10:58;7.50;99.90
25188;DHT22;13141;50.414;8.050;2024-02-26T03:13:26;7.40;99.90
25188;DHT22;13141;50.414;8.050;2024-02-26T03:15:51;7.40;99.90
25188;DHT22;13141;50.414;8.050;2024-02-26T03:18:17;7.40;99.90
25188;DHT22;13141;50.414;8.050;2024-02-26T03:20:43;7.30;99.90
25188;DHT22;13141;50.414;8.050;2024-02-26T03:23:08;7.30;99.90
25188;DHT22;13141;50.414;8.050;2024-02-26T03:25:34;7.30;99.90
25188;DHT22;13141;50.414;8.050;2024-02-26T03:28:00;7.30;99.90
25188;DHT22;13141;50.414;8.050;2024-02-26T03:30:27;7.30;99.90
25188;DHT22;13141;50.414;8.050;2024-02-26T03:32:52;7.30;99.90
25188;DHT22;13141;50.414;8.050;2024-02-26T03:35:18;7.30;99.90
25188;DHT22;13141;50.414;8.050;2024-02-26T03:37:45;7.20;99.90
25188;DHT22;13141;50.414;8.050;2024-02-26T03:40:12;7.20;99.90
25188;DHT22;13141;50.414;8.050;2024-02-26T03:42:38;7.20;99.90
25188;DHT22;13141;50.414;8.050;2024-02-26T03:45:05;7.20;99.90
25188;DHT22;13141;50.414;8.050;2024-02-26T03:47:32;7.20;99.90
25188;DHT22;13141;50.414;8.050;2024-02-26T03:49:58;7.20;99.90
25188;DHT22;13141;50.414;8.050;2024-02-26T03:57:27;7.30;99.90
25188;DHT22;13141;50.414;8.050;2024-02-26T03:59:53;7.30;99.90
25188;DHT22;13141;50.414;8.050;2024-02-26T04:02:19;7.30;99.90
25188;DHT22;13141;50.414;8.050;2024-02-26T04:04:47;7.30;99.90
25188;DHT22;13141;50.414;8.050;2024-02-26T04:07:13;7.30;99.90
25188;DHT22;13141;50.414;8.050;2024-02-26T04:09:39;7.30;99.90
25188;DHT22;13141;50.414;8.050;2024-02-26T04:12:08;7.30;99.90
25188;DHT22;13141;50.414;8.050;2024-02-26T04:14:35;7.30;99.90
25188;DHT22;13141;50.414;8.050;2024-02-26T04:17:02;7.30;99.90
25188;DHT22;13141;50.414;8.050;2024-02-26T04:19:28;7.20;99.90
25188;DHT22;13141;50.414;8.050;2024-02-26T04:21:56;7.30;99.90
25188;DHT22;13141;50.414;8.050;2024-02-26T04:24:23;7.20;99.90
25188;DHT22;13141;50.414;8.050;2024-02-26T04:26:53;7.20;99.90
25188;DHT22;13141;50.414;8.050;2024-02-26T04:29:20;7.40;99.90
25188;DHT22;13141;50.414;8.050;2024-02-26T04:31:46;7.20;99.90
25188;DHT22;13141;50.414;8.050;2024-02-26T04:34:12;7.20;99.90
25188;DHT22;13141;50.414;8.050;2024-02-26T04:36:39;7.20;99.90
25188;DHT22;13141;50.414;8.050;2024-02-26T04:39:06;7.20;99.90
25188;DHT22;13141;50.414;8.050;2024-02-26T04:41:32;6.70;99.90
25188;DHT22;13141;50.414;8.050;2024-02-26T04:43:58;7.20;99.90
25188;DHT22;13141;50.414;8.050;2024-02-26T04:46:27;7.20;99.90
25188;DHT22;13141;50.414;8.050;2024-02-26T04:48:54;7.10;99.90
25188;DHT22;13141;50.414;8.050;2024-02-26T04:51:19;7.10;99.90
25188;DHT22;13141;50.414;8.050;2024-02-26T04:53:46;7.10;99.90
25188;DHT22;13141;50.414;8.050;2024-02-26T04:56:13;7.10;99.90
25188;DHT22;13141;50.414;8.050;2024-02-26T04:58:40;7.10;99.90
25188;DHT22;13141;50.414;8.050;2024-02-26T05:01:06;7.10;99.90
25188;DHT22;13141;50.414;8.050;2024-02-26T05:03:32;7.20;99.90
25188;DHT22;13141;50.414;8.050;2024-02-26T05:05:58;7.10;99.90
25188;DHT22;13141;50.414;8.050;2024-02-26T05:08:24;7.10;99.90
25188;DHT22;13141;50.414;8.050;2024-02-26T05:10:50;7.10;99.90
25188;DHT22;13141;50.414;8.050;2024-02-26T05:13:18;7.10;99.90
25188;DHT22;13141;50.414;8.050;2024-02-26T05:15:44;7.10;99.90
25188;DHT22;13141;50.414;8.050;2024-02-26T05:18:10;7.10;99.90
25188;DHT22;13141;50.414;8.050;2024-02-26T05:20:36;7.10;99.90
25188;DHT22;13141;50.414;8.050;2024-02-26T05:23:02;7.10;99.90
25188;DHT22;13141;50.414;8.050;2024-02-26T05:25:28;7.10;99.90
25188;DHT22;13141;50.414;8.050;2024-02-26T05:27:54;7.10;99.90
25188;DHT22;13141;50.414;8.050;2024-02-26T05:30:21;7.00;99.90
25188;DHT22;13141;50.414;8.050;2024-02-26T05:32:47;7.00;99.90
25188;DHT22;13141;50.414;8.050;2024-02-26T05:35:13;7.00;99.90
25188;DHT22;13141;50.414;8.050;2024-02-26T05:37:41;6.90;99.90
25188;DHT22;13141;50.414;8.050;2024-02-26T05:40:07;6.90;99.90
25188;DHT22;13141;50.414;8.050;2024-02-26T05:42:33;6.90;99.90
25188;DHT22;13141;50.414;8.050;2024-02-26T05:45:01;6.90;99.90
25188;DHT22;13141;50.414;8.050;2024-02-26T05:47:28;6.90;99.90
25188;DHT22;13141;50.414;8.050;2024-02-26T05:49:55;6.90;99.90
25188;DHT22;13141;50.414;8.050;2024-02-26T05:52:23;6.90;99.90
25188;DHT22;13141;50.414;8.050;2024-02-26T05:54:48;6.90;99.90
25188;DHT22;13141;50.414;8.050;2024-02-26T05:57:14;6.90;99.90
25188;DHT22;13141;50.414;8.050;2024-02-26T05:59:40;6.80;99.90
25188;DHT22;13141;50.414;8.050;2024-02-26T06:02:06;6.80;99.90
25188;DHT22;13141;50.414;8.050;2024-02-26T06:04:34;6.90;99.90
25188;DHT22;13141;50.414;8.050;2024-02-26T06:07:00;6.80;99.90
25188;DHT22;13141;50.414;8.050;2024-02-26T06:09:25;6.90;99.90
25188;DHT22;13141;50.414;8.050;2024-02-26T06:11:51;6.80;99.90
25188;DHT22;13141;50.414;8.050;2024-02-26T06:14:17;6.80;99.90
25188;DHT22;13141;50.414;8.050;2024-02-26T06:16:43;6.80;99.90
25188;DHT22;13141;50.414;8.050;2024-02-26T06:19:09;6.80;99.90
25188;DHT22;13141;50.414;8.050;2024-02-26T06:21:36;6.80;99.90
25188;DHT22;13141;50.414;8.050;2024-02-26T06:24:02;6.70;99.90
25188;DHT22;13141;50.414;8.050;2024-02-26T06:26:28;6.70;99.90
25188;DHT22;13141;50.414;8.050;2024-02-26T06:28:54;6.70;99.90
25188;DHT22;13141;50.414;8.050;2024-02-26T06:31:21;6.70;99.90
25188;DHT22;13141;50.414;8.050;2024-02-26T06:33:46;6.60;99.90
25188;DHT22;13141;50.414;8.050;2024-02-26T06:36:12;6.70;99.90
25188;DHT22;13141;50.414;8.050;2024-02-26T06:38:39;6.70;99.90
25188;DHT22;13141;50.414;8.050;2024-02-26T06:41:05;6.70;99.90
25188;DHT22;13141;50.414;8.050;2024-02-26T06:43:31;6.70;99.90
25188;DHT22;13141;50.414;8.050;2024-02-26T06:45:57;6.60;99.90
25188;DHT22;13141;50.414;8.050;2024-02-26T06:48:25;6.60;99.90
25188;DHT22;13141;50.414;8.050;2024-02-26T06:50:51;6.60;99.90
25188;DHT22;13141;50.414;8.050;2024-02-26T06:53:17;6.60;99.90
25188;DHT22;13141;50.414;8.050;2024-02-26T06:55:45;6.60;99.90
25188;DHT22;13141;50.414;8.050;2024-02-26T06:58:11;6.60;99.90
25188;DHT22;13141;50.414;8.050;2024-02-26T07:00:36;6.60;99.90
25188;DHT22;13141;50.414;8.050;2024-02-26T07:03:02;6.60;99.90
25188;DHT22;13141;50.414;8.050;2024-02-26T07:05:29;6.60;99.90
25188;DHT22;13141;50.414;8.050;2024-02-26T07:07:55;6.60;99.90
25188;DHT22;13141;50.414;8.050;2024-02-26T07:10:21;6.60;99.90
25188;DHT22;13141;50.414;8.050;2024-02-26T07:12:48;6.60;99.90
25188;DHT22;13141;50.414;8.050;2024-02-26T07:15:14;6.70;99.90
25188;DHT22;13141;50.414;8.050;2024-02-26T07:17:40;6.70;99.90
25188;DHT22;13141;50.414;8.050;2024-02-26T07:20:07;6.70;99.90
25188;DHT22;13141;50.414;8.050;2024-02-26T07:22:32;6.70;99.90
25188;DHT22;13141;50.414;8.050;2024-02-26T07:24:58;6.70;99.90
25188;DHT22;13141;50.414;8.050;2024-02-26T07:27:24;6.70;99.90
25188;DHT22;13141;50.414;8.050;2024-02-26T07:29:51;6.80;99.90
25188;DHT22;13141;50.414;8.050;2024-02-26T07:32:18;6.80;99.90
25188;DHT22;13141;50.414;8.050;2024-02-26T07:34:44;6.80;99.90
25188;DHT22;13141;50.414;8.050;2024-02-26T07:37:09;6.80;99.90
25188;DHT22;13141;50.414;8.050;2024-02-26T07:39:35;7.10;99.90
25188;DHT22;13141;50.414;8.050;2024-02-26T07:42:01;6.80;99.90
25188;DHT22;13141;50.414;8.050;2024-02-26T07:44:27;6.80;99.90
25188;DHT22;13141;50.414;8.050;2024-02-26T07:46:54;6.80;99.90
25188;DHT22;13141;50.414;8.050;2024-02-26T07:49:20;6.80;99.90
25188;DHT22;13141;50.414;8.050;2024-02-26T07:51:46;6.80;99.90
25188;DHT22;13141;50.414;8.050;2024-02-26T07:54:11;6.80;99.90
25188;DHT22;13141;50.414;8.050;2024-02-26T07:56:37;6.80;99.90
25188;DHT22;13141;50.414;8.050;2024-02-26T07:59:03;6.80;99.90
25188;DHT22;13141;50.414;8.050;2024-02-26T08:01:29;6.80;99.90
25188;DHT22;13141;50.414;8.050;2024-02-26T08:03:57;6.80;99.90
25188;DHT22;13141;50.414;8.050;2024-02-26T08:06:24;6.80;99.90
25188;DHT22;13141;50.414;8.050;2024-02-26T08:08:50;6.80;99.90
25188;DHT22;13141;50.414;8.050;2024-02-26T08:11:16;6.80;99.90
25188;DHT22;13141;50.414;8.050;2024-02-26T08:13:41;6.80;99.90
25188;DHT22;13141;50.414;8.050;2024-02-26T08:16:07;6.80;99.90
25188;DHT22;13141;50.414;8.050;2024-02-26T08:18:34;6.80;99.90
25188;DHT22;13141;50.414;8.050;2024-02-26T08:21:02;6.80;99.90
25188;DHT22;13141;50.414;8.050;2024-02-26T08:23:28;6.80;99.90
25188;DHT22;13141;50.414;8.050;2024-02-26T08:25:54;6.80;99.90
25188;DHT22;13141;50.414;8.050;2024-02-26T08:28:20;6.90;99.90
25188;DHT22;13141;50.414;8.050;2024-02-26T08:30:47;6.90;99.90
25188;DHT22;13141;50.414;8.050;2024-02-26T08:33:12;6.90;99.90
25188;DHT22;13141;50.414;8.050;2024-02-26T08:35:38;6.90;99.90
25188;DHT22;13141;50.414;8.050;2024-02-26T08:38:06;6.80;99.90
25188;DHT22;13141;50.414;8.050;2024-02-26T08:40:33;6.80;99.90
25188;DHT22;13141;50.414;8.050;2024-02-26T08:42:58;6.80;99.90
25188;DHT22;13141;50.414;8.050;2024-02-26T08:45:24;6.80;99.90
25188;DHT22;13141;50.414;8.050;2024-02-26T08:47:50;6.80;99.90
25188;DHT22;13141;50.414;8.050;2024-02-26T08:50:16;6.90;99.90
25188;DHT22;13141;50.414;8.050;2024-02-26T08:52:42;6.90;99.90
25188;DHT22;13141;50.414;8.050;2024-02-26T08:55:10;6.90;99.90
25188;DHT22;13141;50.414;8.050;2024-02-26T08:57:36;6.90;99.90
25188;DHT22;13141;50.414;8.050;2024-02-26T09:00:02;6.90;99.90
25188;DHT22;13141;50.414;8.050;2024-02-26T09:02:29;7.00;99.90
25188;DHT22;13141;50.414;8.050;2024-02-26T09:04:54;7.00;99.90
25188;DHT22;13141;50.414;8.050;2024-02-26T09:07:20;7.10;99.90
25188;DHT22;13141;50.414;8.050;2024-02-26T09:09:47;7.10;99.90
25188;DHT22;13141;50.414;8.050;2024-02-26T09:12:14;7.10;99.90
25188;DHT22;13141;50.414;8.050;2024-02-26T09:14:40;7.10;99.90
25188;DHT22;13141;50.414;8.050;2024-02-26T09:17:06;7.10;99.90
25188;DHT22;13141;50.414;8.050;2024-02-26T09:19:31;7.20;99.90
25188;DHT22;13141;50.414;8.050;2024-02-26T09:21:57;7.10;99.90
25188;DHT22;13141;50.414;8.050;2024-02-26T09:24:23;7.10;99.90
25188;DHT22;13141;50.414;8.050;2024-02-26T09:26:49;7.40;99.90
25188;DHT22;13141;50.414;8.050;2024-02-26T09:29:17;7.20;99.90
25188;DHT22;13141;50.414;8.050;2024-02-26T09:31:43;7.20;99.90
25188;DHT22;13141;50.414;8.050;2024-02-26T09:34:09;7.30;99.90
25188;DHT22;13141;50.414;8.050;2024-02-26T09:36:34;7.40;99.90
25188;DHT22;13141;50.414;8.050;2024-02-26T09:39:00;7.40;99.90
25188;DHT22;13141;50.414;8.050;2024-02-26T09:41:28;7.50;99.90
25188;DHT22;13141;50.414;8.050;2024-02-26T09:43:56;7.50;99.90
25188;DHT22;13141;50.414;8.050;2024-02-26T09:46:24;7.50;99.90
25188;DHT22;13141;50.414;8.050;2024-02-26T09:48:50;7.50;99.90
25188;DHT22;13141;50.414;8.050;2024-02-26T09:51:16;7.60;99.90
25188;DHT22;13141;50.414;8.050;2024-02-26T09:53:43;7.60;99.90
25188;DHT22;13141;50.414;8.050;2024-02-26T09:56:10;7.60;99.90
25188;DHT22;13141;50.414;8.050;2024-02-26T09:58:39;7.70;99.90
25188;DHT22;13141;50.414;8.050;2024-02-26T10:01:11;7.70;99.90
25188;DHT22;13141;50.414;8.050;2024-02-26T10:03:41;7.60;99.90
25188;DHT22;13141;50.414;8.050;2024-02-26T10:06:08;7.60;99.90
25188;DHT22;13141;50.414;8.050;2024-02-26T10:08:35;7.70;99.90
25188;DHT22;13141;50.414;8.050;2024-02-26T10:11:01;7.70;99.90
25188;DHT22;13141;50.414;8.050;2024-02-26T10:13:27;7.80;99.90
25188;DHT22;13141;50.414;8.050;2024-02-26T10:15:53;8.00;99.90
25188;DHT22;13141;50.414;8.050;2024-02-26T10:18:19;7.90;99.90
25188;DHT22;13141;50.414;8.050;2024-02-26T10:20:59;8.00;99.90
25188;DHT22;13141;50.414;8.050;2024-02-26T10:23:25;7.90;99.90
25188;DHT22;13141;50.414;8.050;2024-02-26T10:25:53;7.90;99.90
25188;DHT22;13141;50.414;8.050;2024-02-26T10:28:19;8.00;99.90
25188;DHT22;13141;50.414;8.050;2024-02-26T10:30:44;7.90;99.90
25188;DHT22;13141;50.414;8.050;2024-02-26T10:33:10;7.90;99.90
25188;DHT22;13141;50.414;8.050;2024-02-26T10:35:36;7.90;99.90
25188;DHT22;13141;50.414;8.050;2024-02-26T10:38:04;8.00;99.90
25188;DHT22;13141;50.414;8.050;2024-02-26T10:40:29;8.00;99.90
25188;DHT22;13141;50.414;8.050;2024-02-26T10:42:55;8.10;99.90
25188;DHT22;13141;50.414;8.050;2024-02-26T10:45:21;8.20;99.90
25188;DHT22;13141;50.414;8.050;2024-02-26T10:47:46;8.10;99.90
25188;DHT22;13141;50.414;8.050;2024-02-26T10:50:13;8.20;99.90
25188;DHT22;13141;50.414;8.050;2024-02-26T10:52:40;8.10;99.90
25188;DHT22;13141;50.414;8.050;2024-02-26T10:55:13;8.20;99.90
25188;DHT22;13141;50.414;8.050;2024-02-26T10:57:41;8.30;99.90
25188;DHT22;13141;50.414;8.050;2024-02-26T11:00:07;8.30;99.90
25188;DHT22;13141;50.414;8.050;2024-02-26T11:02:34;8.30;99.90
25188;DHT22;13141;50.414;8.050;2024-02-26T11:05:02;8.30;99.90
25188;DHT22;13141;50.414;8.050;2024-02-26T11:07:30;8.40;99.90
25188;DHT22;13141;50.414;8.050;2024-02-26T11:09:56;8.50;99.90
25188;DHT22;13141;50.414;8.050;2024-02-26T11:12:24;8.50;99.90
25188;DHT22;13141;50.414;8.050;2024-02-26T11:14:50;8.60;99.90
25188;DHT22;13141;50.414;8.050;2024-02-26T11:17:18;8.50;99.90
25188;DHT22;13141;50.414;8.050;2024-02-26T11:19:45;8.50;99.90
25188;DHT22;13141;50.414;8.050;2024-02-26T11:22:11;8.50;99.90
25188;DHT22;13141;50.414;8.050;2024-02-26T11:24:37;8.50;99.90
25188;DHT22;13141;50.414;8.050;2024-02-26T11:27:04;8.50;99.90
25188;DHT22;13141;50.414;8.050;2024-02-26T11:29:37;8.60;99.90
25188;DHT22;13141;50.414;8.050;2024-02-26T11:32:04;8.60;99.90
25188;DHT22;13141;50.414;8.050;2024-02-26T11:34:30;8.60;99.90
25188;DHT22;13141;50.414;8.050;2024-02-26T11:36:56;8.60;99.90
25188;DHT22;13141;50.414;8.050;2024-02-26T11:39:22;8.60;99.90
25188;DHT22;13141;50.414;8.050;2024-02-26T11:41:50;8.60;99.90
25188;DHT22;13141;50.414;8.050;2024-02-26T11:44:28;8.70;99.90
25188;DHT22;13141;50.414;8.050;2024-02-26T11:46:56;8.70;99.90
25188;DHT22;13141;50.414;8.050;2024-02-26T11:49:32;8.90;99.90
25188;DHT22;13141;50.414;8.050;2024-02-26T11:51:58;8.80;99.90
25188;DHT22;13141;50.414;8.050;2024-02-26T11:54:45;8.90;99.90
25188;DHT22;13141;50.414;8.050;2024-02-26T11:57:22;9.00;99.90
25188;DHT22;13141;50.414;8.050;2024-02-26T11:59:48;9.00;99.90
25188;DHT22;13141;50.414;8.050;2024-02-26T12:02:38;9.00;99.90
25188;DHT22;13141;50.414;8.050;2024-02-26T12:05:07;9.00;99.90
25188;DHT22;13141;50.414;8.050;2024-02-26T12:07:34;9.00;99.90
25188;DHT22;13141;50.414;8.050;2024-02-26T12:10:15;9.00;99.90
25188;DHT22;13141;50.414;8.050;2024-02-26T12:12:42;9.10;99.90
25188;DHT22;13141;50.414;8.050;2024-02-26T12:15:09;9.10;99.90
25188;DHT22;13141;50.414;8.050;2024-02-26T12:17:36;9.10;99.90
25188;DHT22;13141;50.414;8.050;2024-02-26T12:20:12;9.40;99.90
25188;DHT22;13141;50.414;8.050;2024-02-26T12:22:40;8.90;99.90
25188;DHT22;13141;50.414;8.050;2024-02-26T12:25:06;9.10;99.90
25188;DHT22;13141;50.414;8.050;2024-02-26T12:27:34;9.20;99.90
25188;DHT22;13141;50.414;8.050;2024-02-26T12:30:00;9.20;99.90
25188;DHT22;13141;50.414;8.050;2024-02-26T12:32:26;9.30;99.90
25188;DHT22;13141;50.414;8.050;2024-02-26T12:34:53;9.30;99.90
25188;DHT22;13141;50.414;8.050;2024-02-26T12:37:20;9.30;99.90
25188;DHT22;13141;50.414;8.050;2024-02-26T12:39:46;9.30;99.90
25188;DHT22;13141;50.414;8.050;2024-02-26T12:42:12;9.30;99.90
25188;DHT22;13141;50.414;8.050;2024-02-26T12:44:39;9.40;99.90
25188;DHT22;13141;50.414;8.050;2024-02-26T12:47:05;9.50;99.90
25188;DHT22;13141;50.414;8.050;2024-02-26T12:49:32;9.70;99.90
25188;DHT22;13141;50.414;8.050;2024-02-26T12:51:59;9.70;99.90
25188;DHT22;13141;50.414;8.050;2024-02-26T12:54:25;9.80;99.90
25188;DHT22;13141;50.414;8.050;2024-02-26T12:56:51;9.90;99.90
25188;DHT22;13141;50.414;8.050;2024-02-26T12:59:18;10.00;99.90
25188;DHT22;13141;50.414;8.050;2024-02-26T13:01:44;10.10;99.90
25188;DHT22;13141;50.414;8.050;2024-02-26T13:04:11;10.10;99.90
25188;DHT22;13141;50.414;8.050;2024-02-26T13:06:37;10.10;99.90
25188;DHT22;13141;50.414;8.050;2024-02-26T13:09:05;10.30;99.90
25188;DHT22;13141;50.414;8.050;2024-02-26T13:11:31;10.40;99.90
25188;DHT22;13141;50.414;8.050;2024-02-26T13:13:57;10.50;99.90
25188;DHT22;13141;50.414;8.050;2024-02-26T13:16:24;10.60;99.90
25188;DHT22;13141;50.414;8.050;2024-02-26T13:18:50;10.60;99.90
25188;DHT22;13141;50.414;8.050;2024-02-26T13:21:18;10.70;99.90
25188;DHT22;13141;50.414;8.050;2024-02-26T13:23:48;10.80;99.90
25188;DHT22;13141;50.414;8.050;2024-02-26T13:26:16;10.80;99.90
25188;DHT22;13141;50.414;8.050;2024-02-26T13:28:42;10.80;99.90
25188;DHT22;13141;50.414;8.050;2024-02-26T13:31:08;10.90;99.90
25188;DHT22;13141;50.414;8.050;2024-02-26T13:33:36;11.00;99.90
25188;DHT22;13141;50.414;8.050;2024-02-26T13:36:03;10.90;99.90
25188;DHT22;13141;50.414;8.050;2024-02-26T13:38:29;10.90;99.90
25188;DHT22;13141;50.414;8.050;2024-02-26T13:40:55;10.80;99.90
25188;DHT22;13141;50.414;8.050;2024-02-26T13:43:23;10.80;99.90
25188;DHT22;13141;50.414;8.050;2024-02-26T13:45:49;10.90;99.90
25188;DHT22;13141;50.414;8.050;2024-02-26T13:48:15;10.90;99.90
25188;DHT22;13141;50.414;8.050;2024-02-26T13:50:42;10.90;99.90
25188;DHT22;13141;50.414;8.050;2024-02-26T13:53:08;10.90;99.90
25188;DHT22;13141;50.414;8.050;2024-02-26T13:55:34;11.10;99.90
25188;DHT22;13141;50.414;8.050;2024-02-26T13:58:00;11.10;99.90
25188;DHT22;13141;50.414;8.050;2024-02-26T14:00:28;11.10;99.90
25188;DHT22;13141;50.414;8.050;2024-02-26T14:02:54;11.10;99.90
25188;DHT22;13141;50.414;8.050;2024-02-26T14:05:20;11.20;99.90
25188;DHT22;13141;50.414;8.050;2024-02-26T14:07:45;11.20;99.90
25188;DHT22;13141;50.414;8.050;2024-02-26T14:10:12;11.20;99.90
25188;DHT22;13141;50.414;8.050;2024-02-26T14:12:38;11.10;99.90
25188;DHT22;13141;50.414;8.050;2024-02-26T14:15:06;11.10;99.90
25188;DHT22;13141;50.414;8.050;2024-02-26T14:17:34;11.10;99.90
25188;DHT22;13141;50.414;8.050;2024-02-26T14:19:59;11.10;99.90
25188;DHT22;13141;50.414;8.050;2024-02-26T14:22:29;11.10;99.90
25188;DHT22;13141;50.414;8.050;2024-02-26T14:24:55;11.10;99.90
25188;DHT22;13141;50.414;8.050;2024-02-26T14:27:21;11.10;99.90
25188;DHT22;13141;50.414;8.050;2024-02-26T14:29:47;11.20;99.90
25188;DHT22;13141;50.414;8.050;2024-02-26T14:32:13;11.20;99.90
25188;DHT22;13141;50.414;8.050;2024-02-26T14:34:41;11.30;99.90
25188;DHT22;13141;50.414;8.050;2024-02-26T14:37:07;11.20;99.90
25188;DHT22;13141;50.414;8.050;2024-02-26T14:39:32;11.20;99.90
25188;DHT22;13141;50.414;8.050;2024-02-26T14:41:58;11.20;99.90
25188;DHT22;13141;50.414;8.050;2024-02-26T14:44:24;11.20;99.90
25188;DHT22;13141;50.414;8.050;2024-02-26T14:46:50;11.20;99.90
25188;DHT22;13141;50.414;8.050;2024-02-26T14:49:16;11.20;99.90
25188;DHT22;13141;50.414;8.050;2024-02-26T14:51:44;11.30;99.90
25188;DHT22;13141;50.414;8.050;2024-02-26T14:54:10;11.20;99.90
25188;DHT22;13141;50.414;8.050;2024-02-26T14:56:36;11.30;99.90
25188;DHT22;13141;50.414;8.050;2024-02-26T14:59:02;11.40;99.90
25188;DHT22;13141;50.414;8.050;2024-02-26T15:01:28;11.30;99.90
25188;DHT22;13141;50.414;8.050;2024-02-26T15:03:54;11.30;99.90
25188;DHT22;13141;50.414;8.050;2024-02-26T15:06:20;11.30;99.90
25188;DHT22;13141;50.414;8.050;2024-02-26T15:08:47;11.30;99.90
25188;DHT22;13141;50.414;8.050;2024-02-26T15:11:13;11.30;99.90
25188;DHT22;13141;50.414;8.050;2024-02-26T15:13:39;11.40;99.90
25188;DHT22;13141;50.414;8.050;2024-02-26T15:16:05;11.20;99.90
25188;DHT22;13141;50.414;8.050;2024-02-26T15:18:31;11.20;99.90
25188;DHT22;13141;50.414;8.050;2024-02-26T15:20:57;11.20;99.90
25188;DHT22;13141;50.414;8.050;2024-02-26T15:23:23;11.10;99.90
25188;DHT22;13141;50.414;8.050;2024-02-26T15:25:51;11.10;99.90
25188;DHT22;13141;50.414;8.050;2024-02-26T15:28:17;11.00;99.90
25188;DHT22;13141;50.414;8.050;2024-02-26T15:30:42;11.00;99.90
25188;DHT22;13141;50.414;8.050;2024-02-26T15:33:08;11.00;99.90
25188;DHT22;13141;50.414;8.050;2024-02-26T15:35:34;10.90;99.90
25188;DHT22;13141;50.414;8.050;2024-02-26T15:38:00;10.90;99.90
25188;DHT22;13141;50.414;8.050;2024-02-26T15:40:26;10.90;99.90
25188;DHT22;13141;50.414;8.050;2024-02-26T15:42:53;10.90;99.90